Time;durP1;ratioP1;P1;durP2;ratioP2;P2;SDS_P1;SDS_P2;PMS_P1;PMS_P2;Temp;Humidity;BMP_temperature;BMP_pressure;BME280_temperature;BME280_humidity;BME280_pressure;Samples;Min_cycle;Max_cycle;Signal;HPM_P1;HPM_P2
2020/12/24 00:02:21;;;;;;;2.72;1.90;;;6.30;94.60;;;;;;5110980;28;20046;-46
2020/12/24 00:04:47;;;;;;;5.30;1.13;;;6.30;94.70;;;;;;5112254;28;20126;-45
2020/12/24 00:07:12;;;;;;;3.13;1.08;;;6.30;94.50;;;;;;5112352;28;20066;-45
2020/12/24 00:09:38;;;;;;;2.15;0.88;;;6.30;94.40;;;;;;5113036;28;20032;-46
2020/12/24 00:12:04;;;;;;;2.25;1.00;;;6.30;94.20;;;;;;5112086;28;20046;-47
2020/12/24 00:14:30;;;;;;;2.85;1.17;;;6.30;94.30;;;;;;5111666;28;20397;-45
2020/12/24 00:16:56;;;;;;;5.10;1.08;;;6.30;94.20;;;;;;5111295;28;20086;-45
2020/12/24 00:19:22;;;;;;;2.33;1.25;;;6.20;94.20;;;;;;5108558;28;20139;-45
2020/12/24 00:21:47;;;;;;;2.55;0.85;;;6.20;94.20;;;;;;5110277;28;20046;-46
2020/12/24 00:24:14;;;;;;;2.65;1.08;;;6.20;94.30;;;;;;5109143;28;20485;-48
2020/12/24 00:26:40;;;;;;;2.33;1.17;;;6.10;94.30;;;;;;5112431;28;20051;-46
2020/12/24 00:29:07;;;;;;;3.60;1.65;;;6.10;94.20;;;;;;5112616;28;20032;-46
2020/12/24 00:31:34;;;;;;;3.35;1.88;;;6.20;94.20;;;;;;5112256;28;20092;-47
2020/12/24 00:34:00;;;;;;;3.70;2.15;;;6.10;94.30;;;;;;5106842;28;20059;-46
2020/12/24 00:36:27;;;;;;;3.05;1.92;;;6.10;94.30;;;;;;5111031;28;20431;-47
2020/12/24 00:38:52;;;;;;;3.35;2.60;;;6.00;94.40;;;;;;5110336;28;20477;-45
2020/12/24 00:41:19;;;;;;;3.95;2.08;;;6.10;94.40;;;;;;5112238;28;20039;-45
2020/12/24 00:43:45;;;;;;;4.20;2.03;;;6.10;94.50;;;;;;5109761;28;20040;-50
2020/12/24 00:46:10;;;;;;;4.63;2.10;;;6.00;94.50;;;;;;5112248;28;20039;-46
2020/12/24 00:48:36;;;;;;;5.25;2.00;;;6.00;94.50;;;;;;5108659;28;20043;-48
2020/12/24 00:51:02;;;;;;;3.72;1.60;;;6.00;94.50;;;;;;5109123;28;20074;-45
2020/12/24 00:53:28;;;;;;;3.45;1.30;;;6.00;94.60;;;;;;5107922;28;20057;-45
2020/12/24 00:55:53;;;;;;;2.63;1.80;;;6.10;94.50;;;;;;5110781;28;21161;-48
2020/12/24 00:58:19;;;;;;;3.50;1.20;;;6.00;94.50;;;;;;5111545;28;20071;-46
2020/12/24 01:00:44;;;;;;;2.00;0.93;;;6.00;94.50;;;;;;5111870;28;20042;-45
2020/12/24 01:03:10;;;;;;;1.27;0.70;;;6.00;94.50;;;;;;5109295;28;20436;-45
2020/12/24 01:05:36;;;;;;;2.10;0.70;;;6.00;94.30;;;;;;5107000;28;20039;-45
2020/12/24 01:08:01;;;;;;;2.92;0.77;;;6.00;94.30;;;;;;5110015;28;20046;-45
2020/12/24 01:10:27;;;;;;;2.83;1.05;;;6.00;94.30;;;;;;5110542;28;20032;-45
2020/12/24 01:12:54;;;;;;;4.07;1.20;;;6.00;94.30;;;;;;5110794;28;20051;-45
2020/12/24 01:15:19;;;;;;;3.55;0.85;;;5.90;94.40;;;;;;5109955;28;20129;-48
2020/12/24 01:17:45;;;;;;;3.22;1.10;;;5.90;94.40;;;;;;5110967;28;20042;-48
2020/12/24 01:20:10;;;;;;;3.08;0.93;;;5.90;94.40;;;;;;5110684;28;20028;-47
2020/12/24 01:22:38;;;;;;;3.13;1.08;;;5.90;94.50;;;;;;5111125;28;20052;-46
2020/12/24 01:25:04;;;;;;;1.45;0.70;;;5.90;94.60;;;;;;5102761;28;20114;-46
2020/12/24 01:27:30;;;;;;;5.13;0.77;;;5.90;94.60;;;;;;5106377;28;20111;-45
2020/12/24 01:29:55;;;;;;;2.63;0.65;;;5.90;94.70;;;;;;5109338;28;20478;-45
2020/12/24 01:32:21;;;;;;;5.18;0.80;;;5.90;94.70;;;;;;5106306;28;20107;-50
2020/12/24 01:34:47;;;;;;;2.05;0.43;;;5.90;94.70;;;;;;5108118;28;20053;-46
2020/12/24 01:37:12;;;;;;;2.30;0.55;;;5.90;94.30;;;;;;5107156;28;20450;-45
2020/12/24 01:39:38;;;;;;;1.02;0.43;;;5.90;94.00;;;;;;5101705;28;20043;-46
2020/12/24 01:42:04;;;;;;;3.13;0.40;;;5.80;93.90;;;;;;5109499;28;20036;-45
2020/12/24 01:44:29;;;;;;;0.52;0.10;;;5.80;93.80;;;;;;5109504;28;20042;-46
2020/12/24 01:46:55;;;;;;;1.90;0.40;;;5.80;93.40;;;;;;5110777;28;20044;-46
2020/12/24 01:49:21;;;;;;;2.53;0.20;;;5.70;93.20;;;;;;5111589;28;20031;-45
2020/12/24 01:51:54;;;;;;;1.42;0.10;;;5.70;93.30;;;;;;5110052;28;20545;-45
2020/12/24 01:54:22;;;;;;;1.08;0.25;;;5.60;93.40;;;;;;5107895;28;20126;-45
2020/12/24 01:56:48;;;;;;;1.75;0.40;;;5.60;93.40;;;;;;5105740;28;20481;-47
2020/12/24 01:59:17;;;;;;;2.13;0.20;;;5.50;93.30;;;;;;5108077;28;20032;-47
2020/12/24 02:01:47;;;;;;;1.27;0.13;;;5.60;93.70;;;;;;5107864;28;20032;-47
2020/12/24 02:04:13;;;;;;;1.27;0.20;;;5.60;93.80;;;;;;5105946;28;20297;-45
2020/12/24 02:06:49;;;;;;;0.68;0.10;;;5.50;93.90;;;;;;5108360;28;20144;-45
2020/12/24 02:09:14;;;;;;;2.55;0.15;;;5.50;93.30;;;;;;5106245;28;20043;-45
2020/12/24 02:11:42;;;;;;;1.05;0.10;;;5.50;93.40;;;;;;5108621;28;20040;-46
2020/12/24 02:14:08;;;;;;;2.97;0.43;;;5.50;93.30;;;;;;5108923;28;20039;-46
2020/12/24 02:16:37;;;;;;;3.40;0.10;;;5.50;93.90;;;;;;5109228;28;20405;-45
2020/12/24 02:19:05;;;;;;;0.70;0.08;;;5.50;92.90;;;;;;5106990;28;20042;-47
2020/12/24 02:21:31;;;;;;;1.17;0.08;;;5.40;92.50;;;;;;5110221;28;20048;-46
2020/12/24 02:23:57;;;;;;;0.68;0.00;;;5.40;92.50;;;;;;5106501;28;20059;-50
2020/12/24 02:26:23;;;;;;;0.60;0.00;;;5.30;92.00;;;;;;5105203;28;20063;-48
2020/12/24 02:28:48;;;;;;;3.58;0.50;;;5.20;92.10;;;;;;5108026;28;20044;-45
2020/12/24 02:31:14;;;;;;;3.47;0.10;;;5.10;92.20;;;;;;5109354;28;20035;-47
2020/12/24 02:33:40;;;;;;;1.25;0.03;;;5.10;92.70;;;;;;5104250;28;20047;-46
2020/12/24 02:36:05;;;;;;;0.90;0.10;;;5.00;93.20;;;;;;5107775;28;20035;-49
2020/12/24 02:38:32;;;;;;;0.68;0.00;;;5.00;93.00;;;;;;5107547;28;20070;-48
2020/12/24 02:40:58;;;;;;;0.77;0.05;;;5.00;92.50;;;;;;5111104;28;20040;-45
2020/12/24 02:43:24;;;;;;;1.08;0.05;;;4.90;92.20;;;;;;5112176;28;20049;-45
2020/12/24 02:45:49;;;;;;;2.05;0.05;;;4.90;92.30;;;;;;5113031;28;20044;-47
2020/12/24 02:48:15;;;;;;;0.98;0.00;;;4.80;92.40;;;;;;5112157;28;20488;-47
2020/12/24 02:50:41;;;;;;;2.05;0.20;;;4.80;92.50;;;;;;5107727;28;20040;-46
2020/12/24 02:53:07;;;;;;;0.65;0.00;;;4.90;92.60;;;;;;5108453;28;20039;-47
2020/12/24 02:55:32;;;;;;;3.42;0.10;;;4.90;92.80;;;;;;5112004;28;20050;-47
2020/12/24 02:57:58;;;;;;;1.15;0.10;;;4.90;93.10;;;;;;5114022;28;20493;-47
2020/12/24 03:00:24;;;;;;;2.47;0.20;;;4.80;93.40;;;;;;5114370;28;20036;-48
2020/12/24 03:02:49;;;;;;;1.67;0.35;;;4.90;93.70;;;;;;5113592;28;20044;-45
2020/12/24 03:05:15;;;;;;;2.67;0.22;;;4.90;93.80;;;;;;5114505;28;20040;-47
2020/12/24 03:07:40;;;;;;;1.52;0.13;;;4.90;93.90;;;;;;5112457;28;20031;-45
2020/12/24 03:10:07;;;;;;;1.95;0.20;;;4.90;93.90;;;;;;5114961;28;20123;-46
2020/12/24 03:12:32;;;;;;;1.63;0.10;;;4.90;93.90;;;;;;5113388;28;20044;-47
2020/12/24 03:14:59;;;;;;;2.25;0.10;;;5.00;93.50;;;;;;5109970;28;20096;-46
2020/12/24 03:17:24;;;;;;;0.38;0.00;;;4.90;93.40;;;;;;5112125;28;20106;-46
2020/12/24 03:19:50;;;;;;;0.43;0.00;;;4.90;93.40;;;;;;5108537;28;20032;-45
2020/12/24 03:22:15;;;;;;;2.40;0.10;;;4.90;92.50;;;;;;5110664;28;20035;-46
2020/12/24 03:24:41;;;;;;;2.05;0.52;;;4.80;92.60;;;;;;5112835;28;20053;-45
2020/12/24 03:27:07;;;;;;;1.05;0.10;;;4.80;92.80;;;;;;5113558;28;20504;-45
2020/12/24 03:29:32;;;;;;;1.25;0.10;;;4.70;92.30;;;;;;5113079;28;20044;-46
2020/12/24 03:31:58;;;;;;;2.50;0.10;;;4.70;92.60;;;;;;5106575;28;20524;-46
2020/12/24 03:34:24;;;;;;;1.92;0.10;;;4.70;92.80;;;;;;5110884;28;20527;-48
2020/12/24 03:36:50;;;;;;;0.77;0.10;;;4.70;92.70;;;;;;5109462;28;20089;-45
2020/12/24 03:39:16;;;;;;;3.55;0.10;;;4.60;92.90;;;;;;5111770;28;20073;-47
2020/12/24 03:41:41;;;;;;;1.33;0.10;;;4.60;93.10;;;;;;5111550;28;20151;-45
2020/12/24 03:44:07;;;;;;;1.88;0.10;;;4.70;93.20;;;;;;5108340;28;20046;-49
2020/12/24 03:46:33;;;;;;;1.02;0.17;;;4.60;93.30;;;;;;5112320;28;20031;-45
2020/12/24 03:49:00;;;;;;;1.48;0.10;;;4.70;93.30;;;;;;5111114;28;20043;-44
2020/12/24 03:51:25;;;;;;;1.10;0.00;;;4.70;93.00;;;;;;5110342;28;20193;-48
2020/12/24 03:53:51;;;;;;;0.22;0.00;;;4.70;92.90;;;;;;5110569;28;20497;-46
2020/12/24 03:56:17;;;;;;;0.70;0.00;;;4.60;92.60;;;;;;5111617;28;20046;-45
2020/12/24 03:58:42;;;;;;;1.27;0.00;;;4.60;91.70;;;;;;5112825;28;20409;-46
2020/12/24 04:01:09;;;;;;;0.70;0.10;;;4.50;92.30;;;;;;5109102;28;20143;-50
2020/12/24 04:03:35;;;;;;;0.47;0.08;;;4.50;92.60;;;;;;5106745;28;20078;-45
2020/12/24 04:06:00;;;;;;;0.40;0.00;;;4.40;92.70;;;;;;5110684;28;20516;-45
2020/12/24 04:08:27;;;;;;;0.50;0.00;;;4.40;92.50;;;;;;5112107;28;20111;-47
2020/12/24 04:10:52;;;;;;;1.88;0.00;;;4.30;92.80;;;;;;5112558;28;20043;-45
2020/12/24 04:13:18;;;;;;;0.17;0.00;;;4.30;92.60;;;;;;5109543;28;20035;-46
2020/12/24 04:15:44;;;;;;;0.77;0.00;;;4.30;92.30;;;;;;5110265;28;20036;-46
2020/12/24 04:18:09;;;;;;;0.40;0.00;;;4.20;92.30;;;;;;5109884;28;20055;-45
2020/12/24 04:20:35;;;;;;;0.82;0.00;;;4.10;92.50;;;;;;5108467;28;20043;-47
2020/12/24 04:23:01;;;;;;;2.50;0.00;;;4.10;92.40;;;;;;5111103;28;20543;-45
2020/12/24 04:25:26;;;;;;;0.93;0.00;;;4.00;92.80;;;;;;5111597;28;20040;-46
2020/12/24 04:27:52;;;;;;;0.00;0.00;;;4.00;93.10;;;;;;5111840;28;20155;-46
2020/12/24 04:30:18;;;;;;;0.50;0.00;;;4.00;93.10;;;;;;5108076;28;20508;-48
2020/12/24 04:32:43;;;;;;;0.95;0.00;;;4.00;93.20;;;;;;5108136;28;20391;-46
2020/12/24 04:35:09;;;;;;;1.08;0.00;;;4.00;93.50;;;;;;5108531;28;20520;-45
2020/12/24 04:37:34;;;;;;;0.80;0.00;;;4.00;93.40;;;;;;5110979;28;20046;-45
2020/12/24 04:40:00;;;;;;;0.25;0.00;;;4.00;93.30;;;;;;5111633;28;20157;-45
2020/12/24 04:42:26;;;;;;;1.40;0.10;;;4.00;93.60;;;;;;5107887;28;20523;-45
2020/12/24 04:44:53;;;;;;;0.13;0.00;;;4.10;93.80;;;;;;5109591;28;20114;-46
2020/12/24 04:47:19;;;;;;;1.08;0.10;;;4.10;93.50;;;;;;5108874;28;20036;-46
2020/12/24 04:49:46;;;;;;;0.90;0.10;;;4.00;93.50;;;;;;5111619;28;20061;-46
2020/12/24 04:52:14;;;;;;;0.40;0.00;;;4.00;93.40;;;;;;5110257;28;20114;-45
2020/12/24 04:54:41;;;;;;;0.65;0.00;;;4.00;93.50;;;;;;5105786;28;21310;-47
2020/12/24 04:57:08;;;;;;;0.30;0.00;;;4.10;93.60;;;;;;5110678;28;20043;-45
2020/12/24 04:59:34;;;;;;;2.20;0.20;;;4.10;93.70;;;;;;5107704;28;20038;-45
2020/12/24 05:02:01;;;;;;;0.55;0.00;;;4.10;93.60;;;;;;5109214;28;20039;-47
2020/12/24 05:04:27;;;;;;;0.60;0.00;;;4.10;93.40;;;;;;5108739;27;20563;-46
2020/12/24 05:07:03;;;;;;;1.27;0.00;;;4.10;93.40;;;;;;5109264;28;20035;-45
2020/12/24 05:09:29;;;;;;;1.58;0.00;;;4.10;93.40;;;;;;5108380;28;20667;-46
2020/12/24 05:11:55;;;;;;;0.63;0.00;;;4.00;93.30;;;;;;5110078;28;20069;-47
2020/12/24 05:14:25;;;;;;;0.80;0.00;;;4.10;93.40;;;;;;5110223;28;20034;-50
2020/12/24 05:16:57;;;;;;;0.65;0.10;;;4.10;93.50;;;;;;5106497;28;20065;-48
2020/12/24 05:19:23;;;;;;;0.88;0.03;;;4.10;93.60;;;;;;5110211;28;20031;-45
2020/12/24 05:21:49;;;;;;;0.93;0.15;;;4.10;93.70;;;;;;5106348;28;20032;-45
2020/12/24 05:24:27;;;;;;;0.68;0.00;;;4.10;93.40;;;;;;5108478;28;20045;-49
2020/12/24 05:27:06;;;;;;;0.40;0.00;;;4.20;93.70;;;;;;5106671;28;20044;-47
2020/12/24 05:29:35;;;;;;;1.27;0.90;;;4.20;93.60;;;;;;5109653;28;20036;-46
2020/12/24 05:32:00;;;;;;;1.85;0.15;;;4.20;93.50;;;;;;5108007;28;20051;-46
2020/12/24 05:34:26;;;;;;;0.38;0.00;;;4.20;93.40;;;;;;5109207;28;20027;-46
2020/12/24 05:36:52;;;;;;;0.25;0.03;;;4.20;93.30;;;;;;5108794;28;20489;-45
2020/12/24 05:39:17;;;;;;;0.50;0.00;;;4.20;93.50;;;;;;5109485;28;20038;-48
2020/12/24 05:41:43;;;;;;;1.40;0.20;;;4.10;93.50;;;;;;5107284;28;20031;-46
2020/12/24 05:44:11;;;;;;;0.63;0.10;;;4.20;93.80;;;;;;5107931;28;20401;-45
2020/12/24 05:46:41;;;;;;;0.90;0.10;;;4.20;93.90;;;;;;5108595;28;20063;-48
2020/12/24 05:49:26;;;;;;;0.55;0.17;;;4.30;93.80;;;;;;5109428;28;20044;-45
2020/12/24 05:51:57;;;;;;;1.13;0.10;;;4.30;93.90;;;;;;5108164;28;20043;-45
2020/12/24 05:54:24;;;;;;;1.27;0.10;;;4.40;93.90;;;;;;5105973;28;20058;-47
2020/12/24 05:56:51;;;;;;;0.85;0.00;;;4.40;93.80;;;;;;5110467;28;20499;-47
2020/12/24 05:59:24;;;;;;;1.55;0.10;;;4.40;93.70;;;;;;5108951;28;20450;-46
2020/12/24 06:02:08;;;;;;;1.77;0.00;;;4.40;93.80;;;;;;5108338;28;20129;-45
2020/12/24 06:04:45;;;;;;;0.35;0.10;;;4.40;93.90;;;;;;5105607;28;20493;-45
2020/12/24 06:07:26;;;;;;;3.42;0.20;;;4.40;94.10;;;;;;5108516;28;20420;-48
2020/12/24 06:09:52;;;;;;;0.60;0.10;;;4.50;94.10;;;;;;5110291;28;20039;-46
2020/12/24 06:12:25;;;;;;;1.73;0.03;;;4.40;94.10;;;;;;5113995;28;20035;-45
2020/12/24 06:14:53;;;;;;;0.80;0.10;;;4.50;94.10;;;;;;5113917;28;20093;-46
2020/12/24 06:17:21;;;;;;;0.50;0.08;;;4.40;93.40;;;;;;5113457;28;20749;-46
2020/12/24 06:19:47;;;;;;;1.35;0.10;;;4.40;93.60;;;;;;5110635;28;20575;-46
2020/12/24 06:22:14;;;;;;;1.20;0.13;;;4.40;93.60;;;;;;5112402;28;20102;-48
2020/12/24 06:24:54;;;;;;;1.33;0.35;;;4.40;93.50;;;;;;5114006;28;20039;-47
2020/12/24 06:27:35;;;;;;;1.58;0.10;;;4.40;93.70;;;;;;5114135;28;20104;-46
2020/12/24 06:30:29;;;;;;;1.27;0.47;;;4.40;93.70;;;;;;5114923;28;20092;-45
2020/12/24 06:32:54;;;;;;;1.70;0.20;;;4.40;93.80;;;;;;5109361;28;20070;-46
2020/12/24 06:35:39;;;;;;;0.45;0.10;;;4.40;93.90;;;;;;5110206;28;20036;-46
2020/12/24 06:38:11;;;;;;;1.17;0.20;;;4.40;94.00;;;;;;5112057;28;20050;-46
2020/12/24 06:40:41;;;;;;;0.85;0.20;;;4.40;93.90;;;;;;5109689;28;20118;-45
2020/12/24 06:43:10;;;;;;;1.83;0.20;;;4.30;93.80;;;;;;5106531;28;20467;-47
2020/12/24 06:45:40;;;;;;;3.22;0.30;;;4.30;93.90;;;;;;5113284;28;20455;-47
2020/12/24 06:48:12;;;;;;;1.60;0.30;;;4.30;94.00;;;;;;5114340;28;20035;-46
2020/12/24 06:50:39;;;;;;;1.83;0.30;;;4.40;94.10;;;;;;5115176;28;20039;-46
2020/12/24 06:53:24;;;;;;;1.67;0.20;;;4.30;94.10;;;;;;5108017;28;20040;-45
2020/12/24 06:56:14;;;;;;;0.40;0.13;;;4.30;94.00;;;;;;5110749;28;20089;-46
2020/12/24 06:58:45;;;;;;;0.93;0.20;;;4.40;94.20;;;;;;5110895;28;20051;-48
2020/12/24 07:01:17;;;;;;;3.30;0.38;;;4.40;94.10;;;;;;5112449;28;20039;-46
2020/12/24 07:03:44;;;;;;;1.70;0.22;;;4.40;94.10;;;;;;5112511;28;20037;-45
2020/12/24 07:06:10;;;;;;;1.10;0.15;;;4.40;94.00;;;;;;5107562;28;20040;-46
2020/12/24 07:08:35;;;;;;;2.08;0.32;;;4.50;93.90;;;;;;5111553;28;20420;-46
2020/12/24 07:11:03;;;;;;;2.08;0.20;;;4.40;94.00;;;;;;5112194;28;20084;-46
2020/12/24 07:13:39;;;;;;;0.98;0.30;;;4.40;94.00;;;;;;5114046;28;20097;-50
2020/12/24 07:16:08;;;;;;;;;;;4.40;94.10;;;;;;5109940;28;20034;-45
2020/12/24 07:18:36;;;;;;;1.73;0.28;;;4.40;94.10;;;;;;5104827;28;19919;-50
2020/12/24 07:21:09;;;;;;;1.40;0.68;;;4.40;94.10;;;;;;5105111;28;20378;-46
2020/12/24 07:23:39;;;;;;;2.47;0.30;;;4.40;94.30;;;;;;5106393;28;20045;-46
2020/12/24 07:26:07;;;;;;;4.18;0.73;;;4.40;94.20;;;;;;5112353;28;20127;-47
2020/12/24 07:28:34;;;;;;;3.80;0.40;;;4.40;94.30;;;;;;5111191;28;20390;-50
2020/12/24 07:31:01;;;;;;;38.83;2.47;;;4.40;94.30;;;;;;5112400;28;20472;-45
2020/12/24 07:33:28;;;;;;;6.50;0.80;;;4.40;94.30;;;;;;5107900;28;20032;-46
2020/12/24 07:35:54;;;;;;;3.65;0.60;;;4.40;94.40;;;;;;5108898;28;20040;-45
2020/12/24 07:38:24;;;;;;;10.88;0.85;;;4.50;94.50;;;;;;5110635;28;20048;-46
2020/12/24 07:40:50;;;;;;;3.22;0.60;;;4.50;94.50;;;;;;5110519;28;20036;-47
2020/12/24 07:43:16;;;;;;;3.13;0.70;;;4.50;94.40;;;;;;5103882;28;20051;-44
2020/12/24 07:45:43;;;;;;;1.08;0.47;;;4.50;94.40;;;;;;5102740;28;20055;-46
2020/12/24 07:48:19;;;;;;;1.00;0.50;;;4.50;94.40;;;;;;5099178;28;20065;-48
2020/12/24 07:50:47;;;;;;;2.70;0.80;;;4.50;94.50;;;;;;5105289;28;20043;-45
2020/12/24 07:53:28;;;;;;;8.95;1.30;;;4.50;94.50;;;;;;5103931;28;20077;-46
2020/12/24 07:56:03;;;;;;;1.55;0.47;;;4.50;94.50;;;;;;5095661;28;20051;-45
2020/12/24 07:58:29;;;;;;;1.52;0.47;;;4.60;94.50;;;;;;5104829;28;20043;-45
2020/12/24 08:00:56;;;;;;;1.90;0.63;;;4.60;94.60;;;;;;5107238;28;20038;-45
2020/12/24 08:03:21;;;;;;;1.25;0.43;;;4.60;94.60;;;;;;5105778;28;20042;-48
2020/12/24 08:05:48;;;;;;;1.55;0.50;;;4.60;94.50;;;;;;5110857;28;20048;-46
2020/12/24 08:08:22;;;;;;;1.77;0.52;;;4.60;94.50;;;;;;5110759;28;20046;-46
2020/12/24 08:10:47;;;;;;;1.33;0.80;;;4.60;94.50;;;;;;5108792;28;20055;-46
2020/12/24 08:13:13;;;;;;;2.40;1.00;;;4.70;94.50;;;;;;5109591;28;20537;-45
2020/12/24 08:15:45;;;;;;;1.50;0.70;;;4.70;94.40;;;;;;5107267;28;20062;-45
2020/12/24 08:18:14;;;;;;;4.45;0.80;;;4.60;94.40;;;;;;5108307;28;20386;-45
2020/12/24 08:20:57;;;;;;;2.20;0.82;;;4.60;94.50;;;;;;5111352;28;20530;-48
2020/12/24 08:23:28;;;;;;;1.42;0.40;;;4.70;94.50;;;;;;5104348;28;20055;-46
2020/12/24 08:25:56;;;;;;;2.28;0.40;;;4.70;94.40;;;;;;5103281;28;20388;-45
2020/12/24 08:28:24;;;;;;;2.85;0.40;;;4.70;94.40;;;;;;5101489;28;20417;-45
2020/12/24 08:30:50;;;;;;;1.42;0.30;;;4.70;94.30;;;;;;5103353;28;20039;-46
2020/12/24 08:33:17;;;;;;;3.13;0.50;;;4.70;94.50;;;;;;5095049;27;20044;-55
2020/12/24 08:35:43;;;;;;;3.58;0.50;;;4.60;94.30;;;;;;5101696;28;20044;-52
2020/12/24 08:38:10;;;;;;;2.00;0.52;;;4.70;94.40;;;;;;5102026;28;20035;-51
2020/12/24 08:40:36;;;;;;;2.75;0.60;;;4.70;94.30;;;;;;5102500;28;20036;-53
2020/12/24 08:43:06;;;;;;;2.15;0.45;;;4.70;94.20;;;;;;5096107;28;20085;-50
2020/12/24 08:45:32;;;;;;;3.65;0.45;;;4.70;94.30;;;;;;5101444;28;20040;-52
2020/12/24 08:47:57;;;;;;;4.47;0.82;;;4.70;94.20;;;;;;5100968;28;20371;-51
2020/12/24 08:50:34;;;;;;;2.53;0.50;;;4.70;94.20;;;;;;5103511;28;20032;-55
2020/12/24 08:53:00;;;;;;;1.80;0.50;;;4.70;94.20;;;;;;5100365;28;20032;-54
2020/12/24 08:55:29;;;;;;;2.67;0.60;;;4.70;94.20;;;;;;5095847;28;20068;-49
2020/12/24 08:57:55;;;;;;;3.05;0.80;;;4.70;94.30;;;;;;5099260;28;20043;-50
2020/12/24 09:00:23;;;;;;;2.97;0.77;;;4.80;94.30;;;;;;5099141;28;20030;-52
2020/12/24 09:02:49;;;;;;;8.85;0.98;;;4.80;94.30;;;;;;5103778;28;20130;-50
2020/12/24 09:05:21;;;;;;;3.85;0.47;;;4.90;94.40;;;;;;5101378;28;20526;-48
2020/12/24 09:07:47;;;;;;;3.72;0.50;;;4.90;94.40;;;;;;5101979;28;20063;-45
2020/12/24 09:10:15;;;;;;;4.95;0.80;;;5.00;94.30;;;;;;5103216;28;20059;-47
2020/12/24 09:12:42;;;;;;;6.75;0.60;;;5.10;94.30;;;;;;5099232;28;20036;-47
2020/12/24 09:15:13;;;;;;;5.57;0.50;;;5.10;94.30;;;;;;5099413;28;20509;-45
2020/12/24 09:17:59;;;;;;;5.22;0.60;;;5.10;94.30;;;;;;5098425;28;20044;-46
2020/12/24 09:20:31;;;;;;;7.65;0.88;;;5.20;94.10;;;;;;5098513;28;20031;-45
2020/12/24 09:22:59;;;;;;;7.15;0.70;;;5.20;94.00;;;;;;5102070;28;20036;-62
2020/12/24 09:25:36;;;;;;;5.47;0.50;;;5.30;94.00;;;;;;5104209;28;20040;-50
2020/12/24 09:28:04;;;;;;;5.65;0.73;;;5.30;93.90;;;;;;5096676;28;20036;-50
2020/12/24 09:30:30;;;;;;;7.30;1.00;;;5.40;94.00;;;;;;5096618;28;20128;-47
2020/12/24 09:32:58;;;;;;;4.82;0.52;;;5.40;93.90;;;;;;5095888;28;20036;-47
2020/12/24 09:35:24;;;;;;;6.47;0.73;;;5.50;93.80;;;;;;5102403;28;20466;-52
2020/12/24 09:37:51;;;;;;;10.80;0.95;;;5.50;93.60;;;;;;5096108;28;20051;-51
2020/12/24 09:40:17;;;;;;;6.20;0.70;;;5.60;93.40;;;;;;5101920;28;20061;-56
2020/12/24 09:42:42;;;;;;;4.80;0.70;;;5.60;93.30;;;;;;5102570;28;20074;-52
2020/12/24 09:45:09;;;;;;;8.80;0.70;;;5.60;93.30;;;;;;5100028;28;20470;-55
2020/12/24 09:47:34;;;;;;;6.28;0.70;;;5.60;93.30;;;;;;5103157;28;20050;-59
2020/12/24 09:50:01;;;;;;;5.18;0.70;;;5.60;93.30;;;;;;5105978;28;20123;-56
2020/12/24 09:52:26;;;;;;;5.25;0.60;;;5.70;93.20;;;;;;5097304;28;20093;-56
2020/12/24 09:54:52;;;;;;;8.23;0.47;;;5.70;93.10;;;;;;5095705;28;20036;-56
2020/12/24 10:01:05;;;;;;;13.48;0.73;;;5.70;93.10;;;;;;5092262;28;20511;-55
2020/12/24 10:07:22;;;;;;;6.95;0.60;;;5.80;92.90;;;;;;5091952;28;20076;-55
2020/12/24 10:13:28;;;;;;;7.20;1.05;;;5.80;92.90;;;;;;5091377;28;20032;-55
2020/12/24 10:15:54;;;;;;;9.23;0.70;;;5.80;93.20;;;;;;5091874;28;20040;-56
2020/12/24 10:18:19;;;;;;;5.20;0.47;;;5.80;92.90;;;;;;5092066;28;20331;-56
2020/12/24 10:24:26;;;;;;;6.68;0.68;;;5.90;92.90;;;;;;5091816;28;20076;-56
2020/12/24 10:26:55;;;;;;;6.13;0.50;;;5.90;92.80;;;;;;5091740;28;20040;-56
2020/12/24 10:29:21;;;;;;;8.57;0.50;;;6.00;92.80;;;;;;5092432;28;20044;-56
2020/12/24 10:31:47;;;;;;;9.98;0.65;;;6.00;92.70;;;;;;5090576;28;20051;-58
2020/12/24 10:34:13;;;;;;;4.68;0.50;;;6.00;92.70;;;;;;5091996;28;20047;-66
2020/12/24 10:36:39;;;;;;;4.85;0.35;;;6.10;92.50;;;;;;5091519;28;20044;-56
2020/12/24 10:42:47;;;;;;;8.25;0.75;;;6.20;92.20;;;;;;5091824;28;20130;-55
2020/12/24 10:45:13;;;;;;;7.68;0.65;;;6.20;92.10;;;;;;5091463;28;20048;-55
2020/12/24 10:47:39;;;;;;;6.28;1.13;;;6.30;92.10;;;;;;5092032;28;20511;-55
2020/12/24 10:50:05;;;;;;;13.05;1.25;;;6.30;92.00;;;;;;5091769;28;20047;-55
2020/12/24 10:56:13;;;;;;;3.22;0.45;;;6.30;91.80;;;;;;5091554;28;20509;-53
2020/12/24 10:58:41;;;;;;;8.80;0.93;;;6.40;91.70;;;;;;5094269;28;20549;-54
2020/12/24 11:01:14;;;;;;;7.75;0.50;;;6.40;91.60;;;;;;5095244;28;20068;-51
2020/12/24 11:07:20;;;;;;;5.70;0.95;;;6.50;91.50;;;;;;5095460;28;20070;-54
2020/12/24 11:09:46;;;;;;;7.43;1.30;;;6.50;91.40;;;;;;5095821;28;20068;-59
2020/12/24 11:12:11;;;;;;;3.53;0.40;;;6.50;91.50;;;;;;5095286;28;20047;-57
2020/12/24 11:14:37;;;;;;;4.03;0.40;;;6.60;91.40;;;;;;5094801;28;20157;-59
2020/12/24 11:17:04;;;;;;;3.80;0.30;;;6.60;91.50;;;;;;5095482;28;20032;-56
2020/12/24 11:19:29;;;;;;;4.50;0.38;;;6.60;91.50;;;;;;5095659;28;20371;-56
2020/12/24 11:21:55;;;;;;;8.10;1.25;;;6.70;91.30;;;;;;5095316;28;20042;-55
2020/12/24 11:24:21;;;;;;;8.52;0.60;;;6.70;91.20;;;;;;5094543;28;20066;-56
2020/12/24 11:26:46;;;;;;;5.25;0.50;;;6.80;90.90;;;;;;5095191;28;20085;-59
2020/12/24 11:29:12;;;;;;;8.02;0.50;;;6.80;91.00;;;;;;5095438;28;20121;-56
2020/12/24 11:35:19;;;;;;;4.72;0.57;;;6.80;90.90;;;;;;5094910;28;20081;-56
2020/12/24 11:41:28;;;;;;;7.80;0.50;;;6.90;91.00;;;;;;5095261;28;20090;-56
2020/12/24 11:43:54;;;;;;;3.15;0.25;;;6.90;91.00;;;;;;5094960;28;20508;-57
2020/12/24 11:50:01;;;;;;;7.43;0.50;;;7.00;90.90;;;;;;5094804;28;20055;-56
2020/12/24 11:56:12;;;;;;;7.82;0.75;;;7.00;90.80;;;;;;5094320;28;20091;-55
2020/12/24 11:58:38;;;;;;;5.20;0.60;;;7.10;90.60;;;;;;5094104;28;20043;-56
2020/12/24 12:01:04;;;;;;;9.90;0.68;;;7.10;90.70;;;;;;5094746;28;20036;-56
2020/12/24 12:03:29;;;;;;;8.10;0.82;;;7.10;90.40;;;;;;5092651;28;20095;-55
2020/12/24 12:09:36;;;;;;;7.15;0.80;;;7.10;90.60;;;;;;5094277;28;20031;-55
2020/12/24 12:12:01;;;;;;;4.95;0.73;;;7.10;90.60;;;;;;5094434;28;20044;-55
2020/12/24 12:14:27;;;;;;;7.07;0.73;;;7.10;90.40;;;;;;5093653;28;20038;-56
2020/12/24 12:20:34;;;;;;;9.02;0.40;;;7.10;90.00;;;;;;5094199;28;20539;-55
2020/12/24 12:23:01;;;;;;;7.57;0.70;;;7.10;90.00;;;;;;5093494;28;20039;-55
2020/12/24 12:25:27;;;;;;;5.93;0.50;;;7.10;90.20;;;;;;5093591;28;20132;-55
2020/12/24 12:27:53;;;;;;;5.45;0.82;;;7.10;90.00;;;;;;5092549;28;20040;-56
2020/12/24 12:30:19;;;;;;;6.45;0.60;;;7.10;90.10;;;;;;5093845;28;20048;-55
2020/12/24 12:32:44;;;;;;;7.90;1.17;;;7.10;89.70;;;;;;5093476;28;20059;-55
2020/12/24 12:38:51;;;;;;;5.38;0.63;;;7.00;89.10;;;;;;5093615;28;20440;-55
2020/12/24 12:41:19;;;;;;;6.63;0.57;;;7.00;89.20;;;;;;5094116;28;20036;-55
2020/12/24 12:47:26;;;;;;;6.25;0.30;;;7.00;89.40;;;;;;5093249;28;20043;-55
2020/12/24 12:49:52;;;;;;;5.88;1.15;;;7.00;89.70;;;;;;5093390;28;20133;-55
2020/12/24 12:55:58;;;;;;;5.45;0.60;;;7.00;88.20;;;;;;5092866;28;20051;-54
2020/12/24 13:02:04;;;;;;;5.63;0.65;;;7.00;88.30;;;;;;5092913;28;20039;-54
2020/12/24 13:08:11;;;;;;;5.25;0.50;;;7.00;89.00;;;;;;5093370;28;20031;-56
2020/12/24 13:10:36;;;;;;;10.55;0.73;;;7.00;88.60;;;;;;5093414;28;20040;-55
2020/12/24 13:13:02;;;;;;;8.90;0.68;;;7.00;89.20;;;;;;5093136;28;20036;-57
2020/12/24 13:15:28;;;;;;;7.55;1.08;;;7.00;88.60;;;;;;5092926;28;20418;-57
2020/12/24 13:21:34;;;;;;;13.10;0.90;;;7.00;88.50;;;;;;5092516;28;20107;-57
2020/12/24 13:24:00;;;;;;;16.63;0.93;;;7.00;89.20;;;;;;5092732;28;20072;-56
2020/12/24 13:30:07;;;;;;;8.68;1.00;;;7.00;89.00;;;;;;5092529;28;20119;-56
2020/12/24 13:32:33;;;;;;;8.45;1.13;;;7.00;89.30;;;;;;5092323;28;20040;-56
2020/12/24 13:38:40;;;;;;;8.80;0.85;;;6.90;89.00;;;;;;5092977;28;20042;-56
2020/12/24 13:44:46;;;;;;;8.65;1.13;;;6.90;89.80;;;;;;5092632;28;20061;-56
2020/12/24 13:50:52;;;;;;;9.02;0.60;;;6.90;89.50;;;;;;5092412;28;20058;-56
2020/12/24 13:53:18;;;;;;;9.07;0.77;;;6.90;88.70;;;;;;5092677;28;20027;-56
2020/12/24 13:55:44;;;;;;;9.15;1.00;;;7.00;88.60;;;;;;5092503;28;20493;-56
2020/12/24 13:58:10;;;;;;;6.43;0.50;;;7.00;88.50;;;;;;5092882;28;20051;-56
2020/12/24 14:04:16;;;;;;;4.80;0.55;;;7.00;87.90;;;;;;5092261;28;20496;-55
2020/12/24 14:06:47;;;;;;;6.07;0.60;;;7.00;88.00;;;;;;5091930;28;20058;-55
2020/12/24 14:09:13;;;;;;;4.05;0.57;;;7.00;88.20;;;;;;5092235;28;20055;-55
2020/12/24 14:11:39;;;;;;;8.13;0.77;;;7.00;88.00;;;;;;5091635;28;20032;-55
2020/12/24 14:14:05;;;;;;;10.93;1.52;;;7.00;88.00;;;;;;5090406;28;20093;-54
2020/12/24 14:20:11;;;;;;;6.82;0.73;;;7.00;87.70;;;;;;5092318;28;20034;-53
2020/12/24 14:22:36;;;;;;;5.97;0.65;;;7.00;87.00;;;;;;5091990;28;20499;-52
2020/12/24 14:28:43;;;;;;;2.60;0.40;;;6.90;86.60;;;;;;5091935;28;20031;-54
2020/12/24 14:31:09;;;;;;;4.82;0.20;;;6.80;86.80;;;;;;5091972;28;20119;-53
2020/12/24 14:37:16;;;;;;;3.88;0.30;;;6.80;85.70;;;;;;5095862;28;20131;-51
2020/12/24 14:39:41;;;;;;;2.95;0.57;;;6.70;86.70;;;;;;5095840;28;20115;-53